createdAt,value
2023-02-11T00:01:01.253Z,69.03
2023-02-11T00:03:29.464Z,69.18
2023-02-11T00:06:00.305Z,69.82
2023-02-11T00:08:28.142Z,69.91
2023-02-11T00:10:56.367Z,70.05
2023-02-11T00:13:24.399Z,70.22
2023-02-11T00:15:52.735Z,70.00
2023-02-11T00:18:21.058Z,70.36
2023-02-11T00:20:49.073Z,70.45
2023-02-11T00:23:17.195Z,70.65
2023-02-11T00:25:45.119Z,71.04
2023-02-11T00:28:13.085Z,71.12
2023-02-11T00:30:41.033Z,70.15
2023-02-11T00:33:09.286Z,70.63
2023-02-11T00:35:38.743Z,71.09
2023-02-11T00:38:06.946Z,71.46
2023-02-11T00:40:35.090Z,70.19
2023-02-11T00:43:03.406Z,69.82
2023-02-11T00:45:31.582Z,70.47
2023-02-11T00:47:59.150Z,70.75
2023-02-11T00:50:27.019Z,72.04
2023-02-11T00:52:55.170Z,72.98
2023-02-11T00:55:23.546Z,73.27
2023-02-11T00:57:51.229Z,72.95
2023-02-11T01:00:20.126Z,72.91
2023-02-11T01:03:06.116Z,72.90
2023-02-11T01:06:10.573Z,72.61
2023-02-11T01:08:38.793Z,72.47
2023-02-11T01:11:13.020Z,72.24
2023-02-11T01:13:40.580Z,72.21
2023-02-11T01:16:08.496Z,71.70
2023-02-11T01:18:55.161Z,72.38
2023-02-11T01:21:23.300Z,72.31
2023-02-11T01:23:51.562Z,72.20
2023-02-11T01:26:19.678Z,70.25
2023-02-11T01:28:47.805Z,69.76
2023-02-11T01:31:15.237Z,70.13
2023-02-11T01:33:42.933Z,70.74
2023-02-11T01:36:12.092Z,72.06
2023-02-11T01:38:41.140Z,73.90
2023-02-11T01:41:10.351Z,74.18
2023-02-11T01:43:40.137Z,75.67
2023-02-11T01:46:31.692Z,76.48
2023-02-11T01:49:11.917Z,75.90
2023-02-11T01:51:45.084Z,77.50
2023-02-11T01:54:32.144Z,77.88
2023-02-11T01:57:17.731Z,78.47
2023-02-11T02:00:08.242Z,77.22
2023-02-11T02:02:43.842Z,76.00
2023-02-11T02:05:40.908Z,75.89
2023-02-11T02:08:22.249Z,76.11
2023-02-11T02:10:53.305Z,78.08
2023-02-11T02:13:21.865Z,78.80
2023-02-11T02:16:15.171Z,78.02
2023-02-11T02:19:00.678Z,75.95
2023-02-11T02:22:20.570Z,75.68
2023-02-11T02:25:13.899Z,77.25
2023-02-11T02:27:50.167Z,77.06
2023-02-11T02:30:23.619Z,75.99
2023-02-11T02:32:50.231Z,76.98
2023-02-11T02:35:37.874Z,77.20
2023-02-11T02:38:31.152Z,77.21
2023-02-11T02:41:19.560Z,77.86
2023-02-11T02:43:49.936Z,78.48
2023-02-11T02:46:24.194Z,76.87
2023-02-11T02:48:52.839Z,77.06
2023-02-11T02:51:25.725Z,77.59
2023-02-11T02:54:14.159Z,75.50
2023-02-11T02:57:08.846Z,75.36
2023-02-11T02:59:45.403Z,77.30
2023-02-11T03:02:32.372Z,77.57
2023-02-11T03:05:24.654Z,76.96
2023-02-11T03:07:58.853Z,76.23
2023-02-11T03:10:53.703Z,77.74
2023-02-11T03:13:24.777Z,77.53
2023-02-11T03:15:53.360Z,78.10
2023-02-11T03:18:22.955Z,78.75
2023-02-11T03:20:53.400Z,79.62
2023-02-11T03:23:39.158Z,80.22
2023-02-11T03:26:22.306Z,79.73
2023-02-11T03:29:03.411Z,77.59
2023-02-11T03:32:08.062Z,77.32
2023-02-11T03:34:57.990Z,78.60
2023-02-11T03:37:33.112Z,77.45
2023-02-11T03:40:04.509Z,77.84
2023-02-11T03:42:59.035Z,78.36
2023-02-11T03:45:26.768Z,79.15
2023-02-11T03:48:01.877Z,77.59
2023-02-11T03:50:29.057Z,77.21
2023-02-11T03:52:56.964Z,77.51
2023-02-11T03:55:26.021Z,77.49
2023-02-11T03:57:53.847Z,78.55
2023-02-11T04:00:21.020Z,79.31
2023-02-11T04:02:48.598Z,79.27
2023-02-11T04:05:16.684Z,78.17
2023-02-11T04:07:44.954Z,77.16
2023-02-11T04:10:12.828Z,76.77
2023-02-11T04:12:40.947Z,77.38
2023-02-11T04:15:10.782Z,77.89
2023-02-11T04:17:38.520Z,78.94
2023-02-11T04:20:07.832Z,79.11
2023-02-11T04:22:35.892Z,80.07
2023-02-11T04:25:04.163Z,80.10
2023-02-11T04:27:32.170Z,78.80
2023-02-11T04:30:00.380Z,78.09
2023-02-11T04:32:27.958Z,78.38
2023-02-11T04:34:55.722Z,78.23
2023-02-11T04:37:23.780Z,78.12
2023-02-11T04:39:54.512Z,77.43
2023-02-11T04:42:22.388Z,79.43
2023-02-11T04:44:50.094Z,80.23
2023-02-11T04:47:17.705Z,78.96
2023-02-11T04:49:45.430Z,78.71
2023-02-11T04:52:12.610Z,80.35
2023-02-11T04:54:40.745Z,80.46
2023-02-11T04:57:08.823Z,80.07
2023-02-11T04:59:36.897Z,80.01
2023-02-11T05:02:04.518Z,78.79
2023-02-11T05:04:32.540Z,77.66
2023-02-11T05:07:00.797Z,78.20
2023-02-11T05:09:28.997Z,79.11
2023-02-11T05:11:56.610Z,80.25
2023-02-11T05:14:24.608Z,81.52
2023-02-11T05:16:53.390Z,81.44
2023-02-11T05:19:20.919Z,81.99
2023-02-11T05:22:01.813Z,81.90
2023-02-11T05:24:33.965Z,79.11
2023-02-11T05:27:02.486Z,78.92
2023-02-11T05:29:30.703Z,79.68
2023-02-11T05:31:59.998Z,81.69
2023-02-11T05:34:28.108Z,82.18
2023-02-11T05:36:56.168Z,81.82
2023-02-11T05:39:24.194Z,82.75
2023-02-11T05:41:52.656Z,82.90
2023-02-11T05:44:20.625Z,83.30
2023-02-11T05:46:49.263Z,83.33
2023-02-11T05:49:18.151Z,82.39
2023-02-11T05:51:45.605Z,81.34
2023-02-11T05:54:13.445Z,81.16
2023-02-11T05:56:43.795Z,80.53
2023-02-11T05:59:13.716Z,80.34
2023-02-11T06:01:41.430Z,81.32
2023-02-11T06:04:09.108Z,81.26
2023-02-11T06:06:36.746Z,81.28
2023-02-11T06:09:05.120Z,80.92
2023-02-11T06:11:32.840Z,81.54
2023-02-11T06:14:01.564Z,81.85
2023-02-11T06:16:30.030Z,82.44
2023-02-11T06:18:57.915Z,83.23
2023-02-11T06:21:36.341Z,84.28
2023-02-11T06:24:10.724Z,83.58
2023-02-11T06:26:39.376Z,81.41
2023-02-11T06:29:07.043Z,81.73
2023-02-11T06:31:34.970Z,82.98
2023-02-11T06:34:05.415Z,83.58
2023-02-11T06:36:33.444Z,82.97
2023-02-11T06:39:01.622Z,83.21
2023-02-11T06:41:29.382Z,83.28
2023-02-11T06:43:57.932Z,83.77
2023-02-11T06:46:26.634Z,83.09
2023-02-11T06:48:54.800Z,82.71
2023-02-11T06:51:22.369Z,81.31
2023-02-11T06:53:50.369Z,82.35
2023-02-11T06:56:19.479Z,82.96
2023-02-11T06:58:47.438Z,83.64
2023-02-11T07:01:16.190Z,84.21
2023-02-11T07:03:45.494Z,84.96
2023-02-11T07:06:15.452Z,84.31
2023-02-11T07:08:43.501Z,84.38
2023-02-11T07:11:12.552Z,83.56
2023-02-11T07:13:40.615Z,83.46
2023-02-11T07:16:09.937Z,82.63
2023-02-11T07:18:39.914Z,83.27
2023-02-11T07:21:09.557Z,83.46
2023-02-11T07:23:37.752Z,83.25
2023-02-11T07:26:09.428Z,83.22
2023-02-11T07:28:37.403Z,82.77
2023-02-11T07:31:15.117Z,82.28
2023-02-11T07:33:42.383Z,81.44
2023-02-11T07:36:10.533Z,81.03
2023-02-11T07:38:38.240Z,81.13
2023-02-11T07:41:29.184Z,81.32
2023-02-11T07:43:56.787Z,81.55
2023-02-11T07:46:26.197Z,81.55
2023-02-11T07:48:53.134Z,81.08
2023-02-11T07:51:23.084Z,81.10
2023-02-11T07:53:52.025Z,81.57
2023-02-11T07:56:20.010Z,81.92
2023-02-11T07:58:48.140Z,81.96
2023-02-11T08:01:22.480Z,81.63
2023-02-11T08:03:50.711Z,81.57
2023-02-11T08:06:20.377Z,80.97
2023-02-11T08:08:47.580Z,80.25
2023-02-11T08:11:15.086Z,79.99
2023-02-11T08:13:41.922Z,79.86
2023-02-11T08:16:10.065Z,79.23
2023-02-11T08:18:38.158Z,78.86
2023-02-11T08:21:08.878Z,77.79
2023-02-11T08:23:39.999Z,75.30
2023-02-11T08:26:16.855Z,74.55
2023-02-11T08:28:45.645Z,74.00
2023-02-11T08:31:34.319Z,74.22
2023-02-11T08:34:02.496Z,75.63
2023-02-11T08:36:55.305Z,75.64
2023-02-11T08:39:22.809Z,75.72
2023-02-11T08:41:53.476Z,75.03
2023-02-11T08:44:21.427Z,72.16
2023-02-11T08:46:49.506Z,70.46
2023-02-11T08:49:17.033Z,73.35
2023-02-11T08:51:44.916Z,73.64
2023-02-11T08:54:12.918Z,72.21
2023-02-11T08:56:40.124Z,72.87
2023-02-11T08:59:09.463Z,72.18
2023-02-11T09:01:37.593Z,72.86
2023-02-11T09:04:05.671Z,71.28
2023-02-11T09:06:34.029Z,69.90
2023-02-11T09:09:01.714Z,69.96
2023-02-11T09:11:30.942Z,68.84
2023-02-11T09:13:59.485Z,70.23
2023-02-11T09:16:29.314Z,70.13
2023-02-11T09:19:01.332Z,70.52
2023-02-11T09:21:28.313Z,67.98
2023-02-11T09:23:55.511Z,67.48
2023-02-11T09:26:24.655Z,64.71
2023-02-11T09:28:52.514Z,62.42
2023-02-11T09:31:22.815Z,64.03
2023-02-11T09:33:51.968Z,64.60
2023-02-11T09:36:24.741Z,64.14
2023-02-11T09:38:52.020Z,64.80
2023-02-11T09:41:25.053Z,62.60
2023-02-11T09:43:56.854Z,60.13
2023-02-11T09:46:24.331Z,61.28
2023-02-11T09:48:52.954Z,62.37
2023-02-11T09:51:23.908Z,62.13
2023-02-11T09:53:52.011Z,61.84
2023-02-11T09:56:20.310Z,62.02
2023-02-11T09:58:48.356Z,60.45
2023-02-11T10:01:56.603Z,61.40
2023-02-11T10:04:55.994Z,61.70
2023-02-11T10:07:38.532Z,60.06
2023-02-11T10:10:08.622Z,60.47
2023-02-11T10:12:41.643Z,60.90
2023-02-11T10:15:44.171Z,60.85
2023-02-11T10:18:47.541Z,61.09
2023-02-11T10:21:47.938Z,60.68
2023-02-11T10:24:15.385Z,60.93
2023-02-11T10:26:48.199Z,60.78
2023-02-11T10:29:54.534Z,59.16
2023-02-11T10:32:28.822Z,56.79
2023-02-11T10:34:57.119Z,57.14
2023-02-11T10:37:25.425Z,56.61
2023-02-11T10:39:53.199Z,56.12
2023-02-11T10:42:20.789Z,55.52
2023-02-11T10:44:58.481Z,55.59
2023-02-11T10:47:31.447Z,55.80
2023-02-11T10:50:03.626Z,56.06
2023-02-11T10:52:30.800Z,54.58
2023-02-11T10:55:23.300Z,54.24
2023-02-11T10:58:01.422Z,54.28
2023-02-11T11:00:36.221Z,53.47
2023-02-11T11:03:05.438Z,54.20
2023-02-11T11:05:35.396Z,54.17
2023-02-11T11:08:04.886Z,54.88
2023-02-11T11:10:43.732Z,55.83
2023-02-11T11:13:30.978Z,55.63
2023-02-11T11:16:13.403Z,56.31
2023-02-11T11:18:42.025Z,54.95
2023-02-11T11:21:23.834Z,55.73
2023-02-11T11:24:22.899Z,54.08
2023-02-11T11:26:52.029Z,52.38
2023-02-11T11:29:23.598Z,52.23
2023-02-11T11:32:01.404Z,51.50
2023-02-11T11:34:38.769Z,50.46
2023-02-11T11:37:41.383Z,50.50
2023-02-11T11:40:49.433Z,48.49
2023-02-11T11:43:23.127Z,48.30
2023-02-11T11:45:58.537Z,46.06
2023-02-11T11:48:32.038Z,45.93
2023-02-11T11:51:00.854Z,45.74
2023-02-11T11:53:34.418Z,46.55
2023-02-11T11:56:13.316Z,46.08
2023-02-11T11:58:41.889Z,45.67
2023-02-11T12:01:36.735Z,45.41
2023-02-11T12:04:31.843Z,45.34
2023-02-11T12:07:27.726Z,45.58
2023-02-11T12:10:30.726Z,46.00
2023-02-11T12:13:00.780Z,45.51
2023-02-11T12:15:49.314Z,44.30
2023-02-11T12:18:38.765Z,43.18
2023-02-11T12:21:22.878Z,42.74
2023-02-11T12:23:55.635Z,40.69
2023-02-11T12:26:48.445Z,40.41
2023-02-11T12:29:27.665Z,39.00
2023-02-11T12:32:00.683Z,38.22
2023-02-11T12:34:57.368Z,38.13
2023-02-11T12:38:12.398Z,36.90
2023-02-11T12:41:03.217Z,36.66
2023-02-11T12:43:42.697Z,37.10
2023-02-11T12:46:21.090Z,36.67
2023-02-11T12:49:18.876Z,36.98
2023-02-11T12:51:55.024Z,36.75
2023-02-11T12:54:32.933Z,36.11
2023-02-11T12:57:07.460Z,35.08
2023-02-11T12:59:34.283Z,34.46
2023-02-11T13:02:04.752Z,33.40
2023-02-11T13:04:53.204Z,32.69
2023-02-11T13:07:31.678Z,32.55
2023-02-11T13:10:02.349Z,30.92
2023-02-11T13:12:49.181Z,31.47
2023-02-11T13:15:16.204Z,30.85
2023-02-11T13:18:20.060Z,30.21
2023-02-11T13:20:46.730Z,29.24
2023-02-11T13:23:43.427Z,29.13
2023-02-11T13:26:13.586Z,29.56
2023-02-11T13:28:55.164Z,30.39
2023-02-11T13:31:27.053Z,30.04
2023-02-11T13:33:55.187Z,30.63
2023-02-11T13:36:28.680Z,30.40
2023-02-11T13:39:28.045Z,30.50
2023-02-11T13:42:04.043Z,30.94
2023-02-11T13:44:32.856Z,31.87
2023-02-11T13:47:05.821Z,31.16
2023-02-11T13:49:38.047Z,30.78
2023-02-11T13:52:06.037Z,29.98
2023-02-11T13:54:38.096Z,28.83
2023-02-11T13:57:20.492Z,27.91
2023-02-11T14:00:21.773Z,28.24
2023-02-11T14:03:18.138Z,27.87
2023-02-11T14:06:27.718Z,27.96
2023-02-11T14:09:09.840Z,27.29
2023-02-11T14:11:48.406Z,26.90
2023-02-11T14:14:24.697Z,26.98
2023-02-11T14:17:00.654Z,26.28
2023-02-11T14:19:38.477Z,25.98
2023-02-11T14:22:08.556Z,25.94
2023-02-11T14:24:35.318Z,27.21
2023-02-11T14:27:12.369Z,27.20
2023-02-11T14:29:48.208Z,28.01
2023-02-11T14:32:27.406Z,28.21
2023-02-11T14:35:01.652Z,28.48
2023-02-11T14:37:50.971Z,29.07
2023-02-11T14:40:28.827Z,29.06
2023-02-11T14:42:56.577Z,29.10
2023-02-11T14:45:28.136Z,28.78
2023-02-11T14:48:08.797Z,29.30
2023-02-11T14:51:34.094Z,29.01
2023-02-11T14:54:11.410Z,29.02
2023-02-11T14:56:43.603Z,28.56
2023-02-11T14:59:21.801Z,28.54
2023-02-11T15:01:54.705Z,28.73
2023-02-11T15:04:27.321Z,28.38
2023-02-11T15:06:55.559Z,28.15
2023-02-11T15:09:53.799Z,27.56
2023-02-11T15:12:24.238Z,27.77
2023-02-11T15:14:53.695Z,27.25
2023-02-11T15:17:22.872Z,27.69
2023-02-11T15:19:53.376Z,27.56
2023-02-11T15:22:23.306Z,28.39
2023-02-11T15:25:10.898Z,28.93
2023-02-11T15:27:59.713Z,29.30
2023-02-11T15:30:34.510Z,29.43
2023-02-11T15:33:06.518Z,29.18
2023-02-11T15:35:40.143Z,29.89
2023-02-11T15:38:08.136Z,30.54
2023-02-11T15:40:37.178Z,30.96
2023-02-11T15:43:05.008Z,30.86
2023-02-11T15:45:53.826Z,30.93
2023-02-11T15:48:35.162Z,30.50
2023-02-11T15:51:13.507Z,31.13
2023-02-11T15:53:43.510Z,31.06
2023-02-11T15:56:15.955Z,30.87
2023-02-11T15:58:45.773Z,30.73
2023-02-11T16:01:12.928Z,30.42
2023-02-11T16:03:40.698Z,30.21
2023-02-11T16:06:47.557Z,30.00
2023-02-11T16:09:14.541Z,29.55
2023-02-11T16:11:47.387Z,29.17
2023-02-11T16:14:23.291Z,29.08
2023-02-11T16:16:51.312Z,29.40
2023-02-11T16:19:25.658Z,30.30
2023-02-11T16:21:53.912Z,31.49
2023-02-11T16:24:40.779Z,32.76
2023-02-11T16:27:29.819Z,34.97
2023-02-11T16:29:57.825Z,35.99
2023-02-11T16:32:29.696Z,37.08
2023-02-11T16:35:00.004Z,37.29
2023-02-11T16:37:27.894Z,38.24
2023-02-11T16:39:56.631Z,39.42
2023-02-11T16:42:24.708Z,40.29
2023-02-11T16:44:52.840Z,40.89
2023-02-11T16:47:49.062Z,41.43
2023-02-11T16:50:21.318Z,41.23
2023-02-11T16:52:48.469Z,41.92
2023-02-11T16:55:19.123Z,43.10
2023-02-11T16:57:47.210Z,43.47
2023-02-11T17:00:19.306Z,44.35
2023-02-11T17:02:47.288Z,44.63
2023-02-11T17:05:20.140Z,45.14
2023-02-11T17:07:48.289Z,45.10
2023-02-11T17:10:18.239Z,45.76
2023-02-11T17:12:46.323Z,45.83
2023-02-11T17:15:14.509Z,46.07
2023-02-11T17:17:42.600Z,46.01
2023-02-11T17:20:32.151Z,46.08
2023-02-11T17:23:00.112Z,46.43
2023-02-11T17:25:27.893Z,46.94
2023-02-11T17:27:56.337Z,47.69
2023-02-11T17:30:25.191Z,47.33
2023-02-11T17:32:53.990Z,47.59
2023-02-11T17:35:22.041Z,48.22
2023-02-11T17:37:49.802Z,49.20
2023-02-11T17:40:18.574Z,48.61
2023-02-11T17:42:47.011Z,48.60
2023-02-11T17:45:15.379Z,48.64
2023-02-11T17:47:43.356Z,48.37
2023-02-11T17:50:12.176Z,48.59
2023-02-11T17:52:40.024Z,48.16
2023-02-11T17:55:12.081Z,48.37
2023-02-11T17:57:39.478Z,48.27
2023-02-11T18:00:07.824Z,48.63
2023-02-11T18:02:35.688Z,48.72
2023-02-11T18:05:04.427Z,49.50
2023-02-11T18:07:32.179Z,49.31
2023-02-11T18:10:00.237Z,49.75
2023-02-11T18:12:28.291Z,49.95
2023-02-11T18:14:57.984Z,50.34
2023-02-11T18:17:25.456Z,50.55
2023-02-11T18:19:56.294Z,50.15
2023-02-11T18:22:24.580Z,50.86
2023-02-11T18:24:55.166Z,50.43
2023-02-11T18:27:22.984Z,50.94
2023-02-11T18:29:50.832Z,50.94
2023-02-11T18:32:18.979Z,51.83
2023-02-11T18:34:46.554Z,51.58
2023-02-11T18:37:14.420Z,51.70
2023-02-11T18:39:42.398Z,51.81
2023-02-11T18:42:10.314Z,51.71
2023-02-11T18:44:38.988Z,52.02
2023-02-11T18:47:06.856Z,52.34
2023-02-11T18:49:36.260Z,51.82
2023-02-11T18:52:04.484Z,52.96
2023-02-11T18:54:32.441Z,52.45
2023-02-11T18:57:00.320Z,53.01
2023-02-11T18:59:27.818Z,53.96
2023-02-11T19:01:55.467Z,54.56
2023-02-11T19:04:23.433Z,54.82
2023-02-11T19:06:51.321Z,55.46
2023-02-11T19:09:19.687Z,55.20
2023-02-11T19:11:47.460Z,55.34
2023-02-11T19:14:15.954Z,56.08
2023-02-11T19:16:46.906Z,56.44
2023-02-11T19:19:14.789Z,56.71
2023-02-11T19:21:43.676Z,58.38
2023-02-11T19:24:11.402Z,58.88
2023-02-11T19:26:38.604Z,58.82
2023-02-11T19:29:06.339Z,58.64
2023-02-11T19:31:34.060Z,57.96
2023-02-11T19:34:01.768Z,56.97
2023-02-11T19:36:29.547Z,56.83
2023-02-11T19:38:59.351Z,56.79
2023-02-11T19:41:27.307Z,57.45
2023-02-11T19:43:56.797Z,57.23
2023-02-11T19:46:25.466Z,58.72
2023-02-11T19:48:53.723Z,59.24
2023-02-11T19:51:21.882Z,59.70
2023-02-11T19:53:51.541Z,59.08
2023-02-11T19:56:20.889Z,57.81
2023-02-11T19:58:48.734Z,57.33
2023-02-11T20:01:20.754Z,56.74
2023-02-11T20:03:52.654Z,57.44
2023-02-11T20:06:23.566Z,57.92
2023-02-11T20:08:58.576Z,58.95
2023-02-11T20:11:26.965Z,59.50
2023-02-11T20:13:55.524Z,59.44
2023-02-11T20:16:36.849Z,60.20
2023-02-11T20:19:16.916Z,59.94
2023-02-11T20:21:46.912Z,60.05
2023-02-11T20:24:16.292Z,60.35
2023-02-11T20:26:45.317Z,60.61
2023-02-11T20:29:13.379Z,60.65
2023-02-11T20:31:41.717Z,60.20
2023-02-11T20:34:10.612Z,60.57
2023-02-11T20:36:39.331Z,60.66
2023-02-11T20:39:06.876Z,60.87
2023-02-11T20:41:35.496Z,60.76
2023-02-11T20:44:04.820Z,59.92
2023-02-11T20:46:33.165Z,59.22
2023-02-11T20:49:01.031Z,58.71
2023-02-11T20:51:29.784Z,58.00
2023-02-11T20:53:57.550Z,57.58
2023-02-11T20:56:27.549Z,57.36
2023-02-11T20:58:55.923Z,57.67
2023-02-11T21:01:25.483Z,58.23
2023-02-11T21:03:57.980Z,58.82
2023-02-11T21:06:27.121Z,58.98
2023-02-11T21:08:54.987Z,60.18
2023-02-11T21:11:22.573Z,61.25
2023-02-11T21:13:51.143Z,61.94
2023-02-11T21:16:20.643Z,62.90
2023-02-11T21:18:49.512Z,63.16
2023-02-11T21:21:18.220Z,63.70
2023-02-11T21:23:45.640Z,63.43
2023-02-11T21:26:13.734Z,62.22
2023-02-11T21:28:41.869Z,61.88
2023-02-11T21:31:10.238Z,62.09
2023-02-11T21:33:38.075Z,62.70
2023-02-11T21:36:08.078Z,62.81
2023-02-11T21:38:36.031Z,63.46
2023-02-11T21:41:07.090Z,63.20
2023-02-11T21:43:38.995Z,62.04
2023-02-11T21:46:10.616Z,61.90
2023-02-11T21:48:38.973Z,61.83
2023-02-11T21:51:22.506Z,61.68
2023-02-11T21:53:54.513Z,62.31
2023-02-11T21:56:22.219Z,62.98
2023-02-11T21:58:53.698Z,62.95
2023-02-11T22:01:24.197Z,63.44
2023-02-11T22:03:52.341Z,64.13
2023-02-11T22:06:47.423Z,64.39
2023-02-11T22:09:15.106Z,65.36
2023-02-11T22:11:42.754Z,65.72
2023-02-11T22:14:10.737Z,66.72
2023-02-11T22:16:38.803Z,66.63
2023-02-11T22:19:07.649Z,66.25
2023-02-11T22:21:38.511Z,66.69
2023-02-11T22:24:07.289Z,67.23
2023-02-11T22:26:34.964Z,67.32
2023-02-11T22:29:03.081Z,67.44
2023-02-11T22:31:32.232Z,67.26
2023-02-11T22:34:00.330Z,67.34
2023-02-11T22:36:33.595Z,67.23
2023-02-11T22:39:02.235Z,68.31
2023-02-11T22:41:29.416Z,68.10
2023-02-11T22:43:57.878Z,68.01
2023-02-11T22:46:26.116Z,67.91
2023-02-11T22:48:54.508Z,68.31
2023-02-11T22:51:25.773Z,66.49
2023-02-11T22:53:58.226Z,67.48
2023-02-11T22:56:26.517Z,67.92
2023-02-11T22:58:56.577Z,69.62
2023-02-11T23:01:24.234Z,70.14
2023-02-11T23:03:52.271Z,70.46
2023-02-11T23:06:19.420Z,70.10
2023-02-11T23:08:46.582Z,70.40
2023-02-11T23:11:32.006Z,71.27
2023-02-11T23:13:59.896Z,70.93
2023-02-11T23:16:31.919Z,70.86
2023-02-11T23:19:01.057Z,71.56
2023-02-11T23:21:30.553Z,71.18
2023-02-11T23:24:03.829Z,71.33
2023-02-11T23:26:32.118Z,70.65
2023-02-11T23:29:00.568Z,71.28
2023-02-11T23:31:35.542Z,71.36
2023-02-11T23:34:09.424Z,70.90
2023-02-11T23:36:37.705Z,71.59
2023-02-11T23:39:05.360Z,70.00
2023-02-11T23:41:33.536Z,71.26
2023-02-11T23:44:01.221Z,72.07
2023-02-11T23:46:30.365Z,70.37
2023-02-11T23:48:57.684Z,72.25
2023-02-11T23:51:25.830Z,71.17
2023-02-11T23:53:52.898Z,72.43
2023-02-11T23:56:25.381Z,71.23
2023-02-11T23:58:53.686Z,72.92
